Hilversum Aerodrome

EHHV · Hollande-Septentrionale, Pays-Bas

METAR anciennes EHHV · Hilversum Aerodrome

Tu vois ci-dessous les METAR des derniers jours. Sélectionne une année pour parcourir les METAR plus anciens, à partir de l'année 2007.

9 décembre 2022

Temps Code Temps Temp. Vue Base cloud Vent METAR/SPECI
03:25
V
-2 °C 8 km - 130° 130° 2 kt METAR EHAM 090225Z 13002KT 8000 R18C/P2000N R27/P2000N R18R/0900D R06/P2000N BCFG NSC M02/M02 Q1006 BECMG 2000 BR
02:55
V
0 °C 10 km+ - 140° 140° 2 kt METAR EHAM 090155Z 14002KT 9999 MIFG NSC M00/M01 Q1006 BECMG 3000 BCFG
02:25
V
0 °C 10 km+ - Var Var 1 kt METAR EHAM 090125Z VRB01KT 9999 MIFG FEW007 00/00 Q1006 BECMG 3000 BR
01:55
I
1 °C 10 km+ 700 ft Var Var 1 kt METAR EHAM 090055Z VRB01KT 9999 MIFG FEW005 BKN007 01/01 Q1006 BECMG 3000 BR FEW010
01:25
I
1 °C 10 km+ 700 ft Var Var 1 kt METAR EHAM 090025Z VRB01KT 9999 MIFG FEW005 BKN007 01/01 Q1006 BECMG 3000 BR FEW010
00:55
I
1 °C 8 km 500 ft 060° 060° 1 kt METAR EHAM 082355Z 06001KT 8000 BCFG BR SCT003 BKN005 01/01 Q1006 TEMPO BKN012
00:25
L
1 °C 800 m 100 ft 080° 080° 3 kt METAR EHAM 082325Z 08003KT 0800 R18C/1000N R27/P2000U R18R/0650N R06/1800U BCFG BR BKN001 01/01 Q1006 TEMPO 1500 BKN003

8 décembre 2022

Temps Code Temps Temp. Vue Base cloud Vent METAR/SPECI
23:55
L
1 °C 300 m 100 ft 030° 030° 3 kt METAR EHAM 082255Z 03003KT 0300 R18C/0550N R27/0650N R18R/0400N R06/0550N FG BKN000 OVC001 01/01 Q1007 NOSIG
23:25
L
1 °C 350 m 100 ft 020° 020° 4 kt METAR EHAM 082225Z 02004KT 350V050 0350 R18C/0450N R27/0600N R18R/0375N R06/0450N FG BKN000 OVC001 01/01 Q1007 NOSIG
22:55
L
1 °C 500 m 100 ft 030° 030° 4 kt METAR EHAM 082155Z 03004KT 350V060 0500 R18C/0375N R27/0800D R18R/0325N R06/0500N FG BKN000 OVC001 01/01 Q1007 NOSIG
22:25
L
1 °C 600 m 100 ft 020° 020° 4 kt METAR EHAM 082125Z 02004KT 350V050 0600 R18C/0700D R27/1900N R18R/0350N R06/1400D FZFG BKN001 OVC002 01/01 Q1006 NOSIG
21:55
I
0 °C 1,8 km - 010° 010° 3 kt METAR EHAM 082055Z 01003KT 1800 R18C/1200U R27/1600N R18R/1900U R06/P2000N BR FEW001 SCT003 00/00 Q1006 BECMG BKN002
21:25
L
0 °C 500 m - 030° 030° 2 kt METAR EHAM 082025Z 03002KT 0500 R18C/0750U R27/P2000U R18R/0900U R06/P2000N FZFG FEW020 M00/M00 Q1006 NOSIG
20:55
I
0 °C 1,8 km - 060° 060° 2 kt METAR EHAM 081955Z 06002KT 1800 R18C/1000U R27/1600D R18R/1700U R06/P2000N FZFG FEW020 M00/M00 Q1006 BECMG 0500
20:25
I
0 °C 4 km - 060° 060° 3 kt METAR EHAM 081925Z 06003KT 010V110 4000 R18C/P2000N R27/P2000N R18R/0650D R06/P2000N BR FEW019 00/00 Q1006 BECMG 0500 FG
19:55
V
0 °C 8 km - 040° 040° 3 kt METAR EHAM 081855Z 04003KT 8000 FEW023 00/M00 Q1006 BECMG 7000
19:25
V
1 °C 9 km - 140° 140° 4 kt METAR EHAM 081825Z 14004KT 9000 FEW016 01/01 Q1006 BECMG 7000
18:55
V
1 °C 10 km+ - 110° 110° 4 kt METAR EHAM 081755Z 11004KT 080V160 9999 FEW020 01/01 Q1005 BECMG 7000
18:25
M
2 °C 10 km+ 2.600 ft 150° 150° 5 kt METAR EHAM 081725Z 15005KT 120V180 9999 -SHRA FEW005 FEW018TCU BKN026 02/02 Q1006 NOSIG
17:55
M
2 °C 10 km+ 2.600 ft 160° 160° 5 kt METAR EHAM 081655Z 16005KT 9999 -SHRA FEW006 FEW018TCU BKN026 02/02 Q1006 NOSIG
17:25
V
2 °C 10 km+ - 160° 160° 6 kt METAR EHAM 081625Z 16006KT 9999 FEW006 FEW018CB SCT022 02/02 Q1006 TEMPO 7000
16:55
M
3 °C 10 km+ 2.200 ft 160° 160° 5 kt METAR EHAM 081555Z 16005KT 9999 -SHRA FEW006 FEW018CB BKN022 03/02 Q1006 TEMPO 7000
16:25
V
3 °C 10 km+ - 160° 160° 8 kt METAR EHAM 081525Z 16008KT 9999 -SHRA FEW006 FEW018CB SCT022 03/02 Q1006 TEMPO 7000
15:55
V
2 °C 10 km+ - 190° 190° 8 kt METAR EHAM 081455Z 19008KT 9999 FEW006 FEW018CB SCT020 02/01 Q1006 TEMPO 7000 -SHRA
15:25
V
2 °C 10 km+ 3.000 ft 230° 230° 9 kt METAR EHAM 081425Z 23009KT 190V250 9999 -SHRA FEW007 FEW018CB BKN030 02/01 Q1006 NOSIG
14:55
M
3 °C 10 km+ 2.200 ft 220° 220° 7 kt METAR EHAM 081355Z 22007KT 9999 -SHRA FEW009 SCT018CB BKN022 03/02 Q1006 TEMPO 6000
14:25
M
4 °C 8 km 2.200 ft 180° 180° 4 kt METAR EHAM 081325Z 18004KT 130V230 8000 -SHRA FEW008 SCT018CB BKN022 04/03 Q1006 TEMPO 7000
13:55
V
4 °C 10 km+ - 180° 180° 6 kt METAR EHAM 081255Z 18006KT 9999 -SHRA FEW008 SCT018CB 04/02 Q1006 TEMPO 34010KT 5000 SHRA
13:25
V
4 °C 10 km+ - 200° 200° 10 kt METAR EHAM 081225Z 20010KT 9999 FEW008 FEW025CB 04/02 Q1006 TEMPO 34010KT 5000 SHRA
12:55
V
5 °C 10 km+ - 190° 190° 8 kt METAR EHAM 081155Z 19008KT 9999 VCSH FEW007 FEW020CB 05/03 Q1006 TEMPO 34010KT 5000 SHRA
12:25
V
4 °C 10 km+ - 170° 170° 8 kt METAR EHAM 081125Z 17008KT 9999 FEW005 04/03 Q1007 TEMPO 34010KT 7000 -SHRA
11:55
V
3 °C 10 km+ - 180° 180° 7 kt METAR EHAM 081055Z 18007KT 9999 FEW005 03/03 Q1007 NOSIG
11:25
V
3 °C 10 km+ - 170° 170° 10 kt METAR EHAM 081025Z 17010KT 9999 VCSH FEW008 SCT020CB SCT023 03/02 Q1007 NOSIG
10:55
M
3 °C 7 km - 310° 310° 4 kt METAR EHAM 080955Z 31004KT 240V050 7000 -SHRA FEW010 SCT016CB SCT022 03/02 Q1008 BECMG 9999
10:25
M
3 °C 6 km - 310° 310° 4 kt METAR EHAM 080925Z 31004KT 240V050 6000 -SHRA FEW010 SCT016CB SCT022 03/02 Q1008 BECMG 9999
09:55
M
3 °C 6 km - Var Var 2 kt METAR EHAM 080855Z VRB02KT 6000 -SHRA FEW010 SCT016CB SCT026 03/02 Q1007 TEMPO 31013KT
09:25
V
4 °C 8 km - 240° 240° 7 kt METAR EHAM 080825Z 24007KT 210V270 8000 -SHRA FEW014 FEW020CB SCT026 04/02 Q1007 TEMPO 7000
08:55
V
3 °C 10 km+ 4.000 ft 220° 220° 9 kt METAR EHAM 080755Z 22009KT 9999 -SHRA FEW014 FEW020CB SCT026 BKN040 03/02 Q1007 TEMPO 7000
08:25
V
3 °C 10 km+ - 200° 200° 4 kt METAR EHAM 080725Z 20004KT 9999 -SHRA FEW015 FEW020CB SCT026 03/03 Q1007 TEMPO 7000
07:55
V
3 °C 10 km+ - 200° 200° 6 kt METAR EHAM 080655Z 20006KT 9999 -SHRA FEW015 FEW020CB SCT026 03/03 Q1007 NOSIG
07:25
V
3 °C 10 km+ - 200° 200° 6 kt METAR EHAM 080625Z 20006KT 9999 -SHRA FEW015 FEW020CB SCT026 03/02 Q1007 NOSIG
06:55
M
4 °C 10 km+ 2.800 ft 230° 230° 6 kt METAR EHAM 080555Z 23006KT 190V280 9999 -SHRA FEW010 FEW020CB BKN028 04/02 Q1007 TEMPO 7000
06:25
M
3 °C 10 km+ 2.400 ft 200° 200° 2 kt METAR EHAM 080525Z 20002KT 9999 -SHRA FEW012 FEW020CB BKN024 03/02 Q1007 TEMPO 6000 SHRA
05:55
M
4 °C 10 km+ 2.400 ft 320° 320° 5 kt METAR EHAM 080455Z 32005KT 290V020 9999 -SHRA FEW008 FEW020CB BKN024 04/03 Q1008 TEMPO 6000 SHRA
05:25
M
4 °C 10 km+ 2.600 ft 350° 350° 11 kt METAR EHAM 080425Z 35011KT 310V040 9999 -SHRA FEW012 FEW020CB BKN026 04/03 Q1008 TEMPO 7000
04:55
M
4 °C 7 km - 290° 290° 4 kt METAR EHAM 080355Z 29004KT 250V330 7000 -SHRA FEW016 FEW020CB SCT027 04/03 Q1008 TEMPO 9999
04:25
V
5 °C 10 km+ - 310° 310° 9 kt METAR EHAM 080325Z 31009KT 9999 -SHRA FEW016 FEW020CB SCT027 05/03 Q1008 TEMPO 7000
03:55
V
4 °C 10 km+ 4.000 ft 240° 240° 5 kt METAR EHAM 080255Z 24005KT 9999 -SHRA FEW016 FEW020CB SCT025 BKN040 04/03 Q1008 RESHRA TEMPO 7000
03:25
M
4 °C 6 km - 290° 290° 5 kt METAR EHAM 080225Z 29005KT 250V030 6000 SHRA FEW016 FEW020CB SCT023 04/03 Q1009 TEMPO 9999 NSW
02:55
V
5 °C 10 km+ - 290° 290° 10 kt METAR EHAM 080155Z 29010KT 9999 VCSH FEW020CB 05/02 Q1009 TEMPO 7000 -SHRA
02:25
V
4 °C 10 km+ - 250° 250° 7 kt METAR EHAM 080125Z 25007KT 9999 VCSH FEW020CB 04/03 Q1009 TEMPO 7000 -SHRA
01:55
M
4 °C 10 km+ 2.500 ft 210° 210° 5 kt METAR EHAM 080055Z 21005KT 9999 -SHRA FEW010 FEW020CB BKN025 04/03 Q1009 TEMPO 7000
01:25
V
5 °C 8 km - 250° 250° 6 kt METAR EHAM 080025Z 25006KT 220V280 8000 -SHRA FEW010 FEW025CB SCT030 05/03 Q1010 TEMPO 7000
00:55
V
3 °C 10 km+ - 220° 220° 5 kt METAR EHAM 072355Z 22005KT 9999 VCSH FEW010 FEW025CB 03/03 Q1010 TEMPO 7000 -SHRA
00:25
V
4 °C 10 km+ - 240° 240° 8 kt METAR EHAM 072325Z 24008KT 210V270 9999 -SHRA FEW015 FEW025CB SCT030 04/03 Q1011 RESHRA TEMPO 7000 -SHRA

7 décembre 2022

Temps Code Temps Temp. Vue Base cloud Vent METAR/SPECI
23:55
V
4 °C 10 km+ - 220° 220° 10 kt METAR EHAM 072255Z 22010KT 9999 -SHRA FEW025CB SCT040 04/03 Q1011 TEMPO 7000
23:25
V
4 °C 10 km+ - 220° 220° 7 kt METAR EHAM 072225Z 22007KT 9999 FEW025CB SCT040 04/03 Q1011 TEMPO -SHRA
22:55
V
4 °C 10 km+ - 220° 220° 7 kt METAR EHAM 072155Z 22007KT 200V260 9999 FEW025CB 04/03 Q1011 TEMPO -SHRA
22:25
V
4 °C 10 km+ - 210° 210° 6 kt METAR EHAM 072125Z 21006KT 9999 FEW025CB 04/02 Q1011 TEMPO -SHRA
21:55
V
4 °C 10 km+ - 240° 240° 5 kt METAR EHAM 072055Z 24005KT 9999 FEW022 FEW025CB 04/02 Q1012 TEMPO -SHRA
21:25
V
4 °C 10 km+ - 270° 270° 6 kt METAR EHAM 072025Z 27006KT 9999 FEW022 FEW025CB 04/02 Q1012 TEMPO -SHRA
20:55
V
4 °C 10 km+ - 250° 250° 3 kt METAR EHAM 071955Z 25003KT 9999 FEW025CB SCT032 04/02 Q1012 TEMPO -SHRA
20:25
V
4 °C 10 km+ - 320° 320° 7 kt METAR EHAM 071925Z 32007KT 9999 FEW025CB SCT032 04/02 Q1013 TEMPO -SHRA
19:55
V
4 °C 10 km+ - 270° 270° 4 kt METAR EHAM 071855Z 27004KT 9999 FEW025CB SCT036 04/02 Q1013 TEMPO 7000 -SHRA
19:25
V
4 °C 10 km+ - Var Var 2 kt METAR EHAM 071825Z VRB02KT 9999 VCSH FEW025CB SCT036 04/02 Q1013 TEMPO 7000 -SHRA
18:55
V
5 °C 10 km+ - 320° 320° 7 kt METAR EHAM 071755Z 32007KT 240V360 9999 -SHRA FEW025CB SCT036 05/02 Q1013 TEMPO 7000
18:25
V
5 °C 10 km+ - 330° 330° 4 kt METAR EHAM 071725Z 33004KT 280V010 9999 VCSH FEW025CB 05/03 Q1013 TEMPO 7000 -SHRA
17:55
V
5 °C 10 km+ - 270° 270° 5 kt METAR EHAM 071655Z 27005KT 260V320 9999 VCSH FEW025CB 05/03 Q1013 TEMPO 7000 -SHRA
17:25
V
5 °C 10 km+ - 300° 300° 5 kt METAR EHAM 071625Z 30005KT 270V330 9999 VCSH FEW020 FEW025CB 05/02 Q1014 TEMPO 7000 -SHRA
16:55
V
5 °C 10 km+ - 270° 270° 5 kt METAR EHAM 071555Z 27005KT 250V310 9999 VCSH FEW020 FEW025CB 05/03 Q1014 TEMPO 7000 -SHRA
16:25
V
5 °C 10 km+ - 300° 300° 7 kt METAR EHAM 071525Z 30007KT 9999 VCSH FEW020 FEW025CB 05/02 Q1014 TEMPO 7000 -SHRA
15:55
V
6 °C 10 km+ - 310° 310° 5 kt METAR EHAM 071455Z 31005KT 9999 VCSH FEW025CB 06/03 Q1014 TEMPO 7000 -SHRA
15:25
V
6 °C 10 km+ - 270° 270° 7 kt METAR EHAM 071425Z 27007KT 9999 VCSH FEW025CB 06/04 Q1015 TEMPO 7000 -SHRA
14:55
V
6 °C 10 km+ - 260° 260° 7 kt METAR EHAM 071355Z 26007KT 9999 VCSH FEW025CB SCT045 06/03 Q1015 TEMPO 7000 -SHRA
14:25
V
6 °C 10 km+ - 260° 260° 6 kt METAR EHAM 071325Z 26006KT 9999 FEW025CB SCT045 06/03 Q1015 TEMPO 7000 -SHRA
13:55
V
5 °C 10 km+ - 320° 320° 8 - 23 kt METAR EHAM 071255Z 32008G23KT 300V360 9999 -SHRA FEW025CB SCT045 05/03 Q1016 TEMPO 7000
13:25
V
7 °C 10 km+ - 320° 320° 7 kt METAR EHAM 071225Z 32007KT 9999 VCSH FEW025CB 07/03 Q1016 TEMPO 7000 -SHRA
12:55
V
7 °C 10 km+ - 290° 290° 7 kt METAR EHAM 071155Z 29007KT 260V320 9999 VCSH FEW025CB 07/03 Q1016 TEMPO 7000 -SHRA
12:25
V
7 °C 10 km+ - 260° 260° 4 kt METAR EHAM 071125Z 26004KT 220V300 9999 -SHRA FEW025CB 07/04 Q1016 TEMPO 7000
11:55
V
5 °C 10 km+ - 250° 250° 3 kt METAR EHAM 071055Z 25003KT 220V280 9999 VCSH FEW025CB 05/03 Q1017 TEMPO 7000 -SHRA
11:25
V
5 °C 10 km+ - 320° 320° 4 kt METAR EHAM 071025Z 32004KT 290V020 9999 FEW025CB 05/03 Q1017 TEMPO 7000 -SHRA
10:55
V
6 °C 10 km+ - Var Var 2 kt METAR EHAM 070955Z VRB02KT 9999 VCSH FEW025CB 06/03 Q1017 TEMPO 7000 -SHRA
10:25
V
4 °C 10 km+ - 270° 270° 2 kt METAR EHAM 070925Z 27002KT 9999 VCSH FEW025CB 04/03 Q1017 TEMPO 7000 -SHRA
09:55
V
4 °C 10 km+ - 350° 350° 4 kt METAR EHAM 070855Z 35004KT 310V040 9999 VCSH FEW025CB 04/03 Q1017 TEMPO 7000 -SHRA
09:25
V
3 °C 10 km+ - 340° 340° 1 kt METAR EHAM 070825Z 34001KT 9999 FEW025CB 03/02 Q1017 TEMPO 7000 -SHRA
08:55
V
4 °C 10 km+ - 330° 330° 6 kt METAR EHAM 070755Z 33006KT 280V040 9999 FEW022 FEW025CB 04/02 Q1017 TEMPO 7000 -SHRA
08:25
V
2 °C 10 km+ - 270° 270° 5 kt METAR EHAM 070725Z 27005KT 9999 VCSH FEW022 FEW025CB 02/01 Q1017 TEMPO 7000 -SHRA
07:55
V
2 °C 10 km+ - 280° 280° 3 kt METAR EHAM 070655Z 28003KT 9999 FEW022CB 02/02 Q1017 TEMPO 7000 -SHRA
07:25
V
2 °C 10 km+ - 350° 350° 1 kt METAR EHAM 070625Z 35001KT 9999 -SHRA FEW017 FEW022CB 02/01 Q1017 TEMPO 7000
06:55
V
3 °C 10 km+ - 320° 320° 3 kt METAR EHAM 070555Z 32003KT 260V010 9999 -SHRA FEW017 FEW022CB 03/02 Q1017 TEMPO 7000
06:25
V
3 °C 10 km+ - 300° 300° 4 kt METAR EHAM 070525Z 30004KT 270V340 9999 -SHRA FEW017 FEW022CB SCT030 03/02 Q1017 TEMPO 7000
05:55
V
1 °C 10 km+ - 320° 320° 3 kt METAR EHAM 070455Z 32003KT 280V050 9999 FEW022CB 01/01 Q1017 TEMPO -SHRA
05:25
V
2 °C 10 km+ - 330° 330° 3 kt METAR EHAM 070425Z 33003KT 9999 FEW022CB 02/02 Q1017 TEMPO -SHRA
04:55
V
2 °C 10 km+ - 280° 280° 2 kt METAR EHAM 070355Z 28002KT 9999 FEW024 02/02 Q1017 TEMPO -SHRA FEW022CB
04:25
V
1 °C 10 km+ - Var Var 1 kt METAR EHAM 070325Z VRB01KT 9999 FEW024 01/01 Q1017 TEMPO -SHRA FEW022CB
03:55
V
3 °C 10 km+ - Var Var 1 kt METAR EHAM 070255Z VRB01KT 9999 FEW020 03/03 Q1017 TEMPO -SHRA FEW022CB
03:25
V
3 °C 10 km+ - 300° 300° 3 kt METAR EHAM 070225Z 30003KT 9999 FEW020 FEW022CB SCT030 03/02 Q1017 NOSIG
02:55
V
4 °C 10 km+ - 330° 330° 2 kt METAR EHAM 070155Z 33002KT 9999 VCSH FEW022CB SCT030 04/03 Q1018 RESHRA NOSIG
02:25
M
4 °C 6 km - 330° 330° 10 kt METAR EHAM 070125Z 33010KT 310V010 6000 SHRA FEW015 FEW025CB SCT030 04/03 Q1018 BECMG 9999 NSW
01:55
V
3 °C 10 km+ - 310° 310° 4 kt METAR EHAM 070055Z 31004KT 9999 FEW022CB 03/02 Q1018 NOSIG
01:25
V
4 °C 10 km+ - 340° 340° 6 kt METAR EHAM 070025Z 34006KT 290V030 9999 -SHRA FEW006 FEW022CB SCT030 04/03 Q1018 NOSIG
00:55
V
3 °C 10 km+ - 310° 310° 2 kt METAR EHAM 062355Z 31002KT 9999 FEW025CB 03/02 Q1018 NOSIG
00:25
V
4 °C 10 km+ - 300° 300° 3 kt METAR EHAM 062325Z 30003KT 270V330 9999 FEW022CB SCT030 04/03 Q1018 NOSIG

6 décembre 2022

Temps Code Temps Temp. Vue Base cloud Vent METAR/SPECI
23:55
V
2 °C 10 km+ - 260° 260° 5 kt METAR EHAM 062255Z 26005KT 9999 FEW025CB SCT042 02/02 Q1018 NOSIG
23:25
V
4 °C 10 km+ - Var Var 2 kt METAR EHAM 062225Z VRB02KT 9999 FEW025CB 04/03 Q1018 NOSIG
22:55
V
3 °C 10 km+ - 310° 310° 3 kt METAR EHAM 062155Z 31003KT 9999 FEW022CB 03/03 Q1018 NOSIG
22:25
V
4 °C 10 km+ - 300° 300° 5 kt METAR EHAM 062125Z 30005KT 9999 FEW022CB SCT040 04/03 Q1018 NOSIG
21:55
V
5 °C 10 km+ - 320° 320° 5 kt METAR EHAM 062055Z 32005KT 300V360 9999 FEW022CB SCT040 05/05 Q1018 TEMPO 7000 -SHRA
21:25
V
5 °C 10 km+ - 300° 300° 5 kt METAR EHAM 062025Z 30005KT 9999 FEW022CB SCT026 05/04 Q1018 RESHRA TEMPO 7000 -SHRA
20:55
V
5 °C 10 km+ - 300° 300° 5 kt METAR EHAM 061955Z 30005KT 270V340 9999 VCSH FEW022CB SCT026 05/05 Q1018 RESHRA TEMPO 7000 -SHRA
20:25
M
4 °C 7 km - 290° 290° 3 kt METAR EHAM 061925Z 29003KT 7000 SHRA FEW017 FEW022CB 04/04 Q1018 TEMPO 9999 NSW
19:55
V
5 °C 10 km+ - 300° 300° 3 kt METAR EHAM 061855Z 30003KT 9999 VCSH FEW017 FEW022CB 05/04 Q1018 RESHRA TEMPO 7000 -SHRA
19:25
V
5 °C 8 km - 260° 260° 3 kt METAR EHAM 061825Z 26003KT 240V300 8000 SHRA FEW017 FEW022CB SCT034 05/04 Q1018 TEMPO 7000
18:55
V
5 °C 10 km+ - 260° 260° 5 kt METAR EHAM 061755Z 26005KT 9999 VCSH FEW022CB SCT033 05/04 Q1018 TEMPO 7000 -SHRA
18:25
V
5 °C 10 km+ - 250° 250° 4 kt METAR EHAM 061725Z 25004KT 9999 -SHRA FEW022CB SCT033 05/04 Q1018 TEMPO 7000
17:55
V
6 °C 10 km+ - 270° 270° 4 kt METAR EHAM 061655Z 27004KT 9999 FEW022CB SCT033 06/05 Q1018 TEMPO 7000 -SHRA
17:25
V
6 °C 10 km+ 3.100 ft 290° 290° 3 kt METAR EHAM 061625Z 29003KT 270V350 9999 FEW022 FEW025CB BKN031 06/05 Q1018 TEMPO 7000 -SHRA
16:55
V
5 °C 10 km+ - 270° 270° 5 kt METAR EHAM 061555Z 27005KT 9999 -SHRA FEW017 SCT022 FEW025CB 05/05 Q1018 TEMPO 7000
16:25
V
7 °C 8 km 3.200 ft 250° 250° 6 kt METAR EHAM 061525Z 25006KT 8000 -SHRA FEW017 SCT022 FEW025CB BKN032 07/06 Q1018 RESHRA TEMPO 7000
15:55
M
6 °C 6 km - 210° 210° 1 kt METAR EHAM 061455Z 21001KT 6000 SHRA FEW014 SCT018 FEW025CB 06/05 Q1018 TEMPO 9999 NSW
15:25
V
7 °C 10 km+ - Var Var 2 kt METAR EHAM 061425Z VRB02KT 9999 FEW014 SCT020 FEW025CB 07/06 Q1019 TEMPO 7000 -SHRA
14:55
M
7 °C 7 km 2.000 ft 280° 280° 6 kt METAR EHAM 061355Z 28006KT 240V310 7000 FEW014 BKN020 FEW025CB 07/05 Q1019 TEMPO 9999 NSW
14:25
M
7 °C 7 km 2.000 ft 270° 270° 7 kt METAR EHAM 061325Z 27007KT 7000 SHRA FEW014 BKN020 SCT025CB 07/06 Q1019 TEMPO 9999
13:55
M
7 °C 10 km+ 2.200 ft 270° 270° 7 kt METAR EHAM 061255Z 27007KT 9999 -SHRA FEW015 BKN022 SCT025CB 07/06 Q1019 TEMPO 7000
13:25
M
8 °C 10 km+ 2.100 ft 270° 270° 7 kt METAR EHAM 061225Z 27007KT 9999 -SHRA FEW019 BKN021 SCT025CB 08/05 Q1019 TEMPO 7000
12:55
V
7 °C 10 km+ - 260° 260° 7 kt METAR EHAM 061155Z 26007KT 230V300 9999 -SHRA FEW019 SCT030 07/04 Q1019 TEMPO 7000 SCT025CB
12:25
V
7 °C 10 km+ - 250° 250° 7 kt METAR EHAM 061125Z 25007KT 9999 FEW027 SCT030 07/04 Q1020 TEMPO 7000 -SHRA SCT025CB
11:55
V
7 °C 10 km+ - 270° 270° 7 kt METAR EHAM 061055Z 27007KT 9999 FEW027 07/04 Q1020 TEMPO 7000 -SHRA SCT025CB
11:25
V
6 °C 10 km+ - 270° 270° 5 kt METAR EHAM 061025Z 27005KT 9999 SCT028 06/03 Q1020 TEMPO 7000 -SHRA SCT025CB
10:55
V
6 °C 10 km+ 3.200 ft 280° 280° 4 kt METAR EHAM 060955Z 28004KT 9999 FEW025 FEW030TCU BKN032 06/04 Q1020 NOSIG

Nous et des tiers suivons ton comportement Internet sur notre site Web à l'aide de cookies. Si tu continues, nous supposons que tu es d'accord avec notre Politique en matière de cookies.